Time;durP1;ratioP1;P1;durP2;ratioP2;P2;SDS_P1;SDS_P2;PMS_P1;PMS_P2;Temp;Humidity;BMP_temperature;BMP_pressure;BME280_temperature;BME280_humidity;BME280_pressure;Samples;Min_cycle;Max_cycle;Signal;HPM_P1;HPM_P2
2022/09/16 00:00:14;;;;;;;4.80;1.20;;;;;;;-145.18;100.00;46654.53;4971885;28;20039;-68
2022/09/16 00:02:39;;;;;;;8.30;1.30;;;;;;;-145.18;100.00;46652.59;4971192;28;20023;-68
2022/09/16 00:05:05;;;;;;;4.47;1.20;;;;;;;-145.18;100.00;46654.53;4983357;28;20030;-68
2022/09/16 00:07:31;;;;;;;7.50;1.53;;;;;;;-145.18;100.00;46648.69;4991101;28;20037;-68
2022/09/16 00:09:56;;;;;;;9.50;1.90;;;;;;;-145.18;100.00;46650.63;4990902;28;20451;-68
2022/09/16 00:12:21;;;;;;;4.37;1.10;;;;;;;-145.18;100.00;46648.69;4974123;28;20028;-68
2022/09/16 00:14:47;;;;;;;4.00;0.87;;;;;;;-145.18;100.00;46648.69;4952323;29;20038;-67
2022/09/16 00:17:12;;;;;;;8.27;1.27;;;;;;;-145.18;100.00;46646.72;4952180;28;20132;-67
2022/09/16 00:19:38;;;;;;;7.20;1.43;;;;;;;-145.18;100.00;46648.69;4952548;29;20694;-67
2022/09/16 00:22:04;;;;;;;6.63;1.50;;;;;;;-145.18;100.00;46650.63;4951948;29;20043;-67
2022/09/16 00:24:29;;;;;;;4.43;1.80;;;;;;;-145.18;100.00;46648.69;4952305;29;20372;-67
2022/09/16 00:26:54;;;;;;;4.73;1.40;;;;;;;-145.18;100.00;46646.72;4951706;29;20123;-67
2022/09/16 00:29:20;;;;;;;8.83;1.27;;;;;;;-145.18;100.00;46646.72;4952551;29;20038;-67
2022/09/16 00:31:45;;;;;;;6.43;1.90;;;;;;;-145.18;100.00;46648.69;4951914;29;20451;-66
2022/09/16 00:34:10;;;;;;;6.47;1.70;;;;;;;-145.18;100.00;46648.69;4952504;28;20120;-67
2022/09/16 00:36:36;;;;;;;10.67;1.70;;;;;;;-145.18;100.00;46642.81;4951997;29;20075;-67
2022/09/16 00:39:01;;;;;;;6.80;1.27;;;;;;;-145.18;100.00;46646.72;4952221;29;20063;-67
2022/09/16 00:41:32;;;;;;;8.90;1.40;;;;;;;-145.18;100.00;46646.72;4952262;28;20061;-67
2022/09/16 00:43:59;;;;;;;8.57;1.80;;;;;;;-145.18;100.00;46642.81;4952253;29;20039;-67
2022/09/16 00:46:39;;;;;;;9.77;1.70;;;;;;;-145.18;100.00;46650.63;4951835;28;20126;-67
2022/09/16 00:49:18;;;;;;;9.10;1.63;;;;;;;-145.18;100.00;46646.72;4952235;29;20047;-67
2022/09/16 00:51:47;;;;;;;7.37;1.57;;;;;;;-145.18;100.00;46644.78;4951924;29;20041;-67
2022/09/16 00:54:14;;;;;;;8.47;1.50;;;;;;;-145.18;100.00;46646.72;4952663;28;20528;-67
2022/09/16 00:56:43;;;;;;;10.07;2.70;;;;;;;-145.18;100.00;46648.69;4955541;29;20035;-67
2022/09/16 00:59:23;;;;;;;11.60;1.77;;;;;;;-145.18;100.00;46644.78;4956068;29;20094;-67
2022/09/16 01:01:50;;;;;;;8.40;2.07;;;;;;;-145.18;100.00;46644.78;4979738;28;20117;-67
2022/09/16 01:04:25;;;;;;;10.20;1.73;;;;;;;-145.18;100.00;46646.72;4994758;28;20054;-67
2022/09/16 01:06:51;;;;;;;8.23;2.38;;;;;;;-145.18;100.00;46644.78;4994301;28;20034;-67
2022/09/16 01:09:20;;;;;;;5.07;1.70;;;;;;;-145.18;100.00;46646.72;4977348;28;20407;-69
2022/09/16 01:11:46;;;;;;;6.57;1.83;;;;;;;-145.18;100.00;46642.81;4993861;28;20022;-69
2022/09/16 01:17:27;;;;;;;9.63;1.77;;;;;;;-145.18;100.00;46679.94;4994072;28;20061;-69
2022/09/16 01:20:07;;;;;;;8.50;1.37;;;;;;;-145.18;100.00;46644.78;4994636;28;20062;-69
2022/09/16 01:23:01;;;;;;;4.33;0.80;;;;;;;-145.18;100.00;46648.69;4993989;28;20026;-67
2022/09/16 01:25:45;;;;;;;8.50;1.50;;;;;;;-145.18;100.00;46648.69;4994617;28;20026;-67
2022/09/16 01:28:26;;;;;;;5.93;0.63;;;;;;;-145.18;100.00;46648.69;4994212;28;20510;-69
2022/09/16 01:31:12;;;;;;;8.80;1.10;;;;;;;-145.18;100.00;46648.69;4994435;28;20026;-69
2022/09/16 01:33:46;;;;;;;12.88;1.50;;;;;;;-145.18;100.00;46652.59;4993850;28;20467;-69
2022/09/16 01:36:34;;;;;;;4.07;0.90;;;;;;;-145.18;100.00;46654.53;4994195;28;20459;-69
2022/09/16 01:39:41;;;;;;;5.83;0.83;;;;;;;-145.18;100.00;46650.63;4994243;28;20018;-69
2022/09/16 01:42:19;;;;;;;10.63;1.25;;;;;;;-145.18;100.00;46652.59;4993717;28;20049;-69
2022/09/16 01:45:02;;;;;;;6.77;1.10;;;;;;;-145.18;100.00;46654.53;4994276;28;20049;-67
2022/09/16 01:47:50;;;;;;;5.63;1.10;;;;;;;-145.18;100.00;46654.53;4993767;28;20034;-68
2022/09/16 01:50:29;;;;;;;5.20;0.80;;;;;;;-145.18;100.00;46652.59;4983764;28;20074;-69
2022/09/16 01:53:19;;;;;;;5.10;1.17;;;;;;;-145.18;100.00;46654.53;4993621;28;20085;-69
2022/09/16 01:55:59;;;;;;;6.30;1.00;;;;;;;-145.18;100.00;46656.50;4993850;28;20029;-69
2022/09/16 01:58:59;;;;;;;3.53;0.70;;;;;;;-145.18;100.00;46656.50;4993810;28;20432;-69
2022/09/16 02:04:09;;;;;;;4.78;0.60;;;;;;;-145.18;100.00;46658.44;4679271;23;20046;-70
2022/09/16 02:06:37;;;;;;;2.67;0.50;;;;;;;-145.18;100.00;46662.34;4997450;28;20093;-68
2022/09/16 02:09:12;;;;;;;4.07;1.20;;;;;;;-145.18;100.00;46658.44;5006645;28;20367;-68
2022/09/16 02:11:40;;;;;;;6.77;0.50;;;;;;;-145.18;100.00;46654.53;5008758;28;20045;-67
2022/09/16 02:14:12;;;;;;;4.00;0.50;;;;;;;-145.18;100.00;46652.59;5005959;28;20268;-68
2022/09/16 02:16:44;;;;;;;9.30;0.90;;;;;;;-145.18;100.00;46654.53;5006165;28;20502;-68
2022/09/16 02:19:24;;;;;;;5.73;1.30;;;;;;;-145.18;100.00;46654.53;5012211;28;20510;-69
2022/09/16 02:21:53;;;;;;;4.03;0.60;;;;;;;-145.18;100.00;46652.59;5012587;28;20048;-69
2022/09/16 02:24:21;;;;;;;5.63;0.77;;;;;;;-145.18;100.00;46652.59;5012429;28;20505;-69
2022/09/16 02:26:53;;;;;;;4.53;0.63;;;;;;;-145.18;100.00;46650.63;5011683;28;20037;-69
2022/09/16 02:29:24;;;;;;;4.17;0.70;;;;;;;-145.18;100.00;46644.78;5012468;28;20553;-69
2022/09/16 02:31:54;;;;;;;3.00;0.57;;;;;;;-145.18;100.00;46646.72;5012296;28;20030;-69
2022/09/16 02:34:25;;;;;;;2.43;0.50;;;;;;;-145.18;100.00;46640.88;5012249;28;20036;-69
2022/09/16 02:36:56;;;;;;;3.10;0.60;;;;;;;-145.18;100.00;46644.78;5012722;28;20038;-68
2022/09/16 02:39:29;;;;;;;6.47;0.60;;;;;;;-145.18;100.00;46644.78;5013255;28;20407;-69
2022/09/16 02:41:55;;;;;;;2.53;0.73;;;;;;;-145.18;100.00;46642.81;5012427;28;20130;-69
2022/09/16 02:44:24;;;;;;;2.70;0.80;;;;;;;-145.18;100.00;46642.81;5012606;28;20033;-68
2022/09/16 02:46:52;;;;;;;7.17;0.70;;;;;;;-145.18;100.00;46644.78;5012509;28;20029;-69
2022/09/16 02:50:03;;;;;;;3.30;0.80;;;;;;;-145.18;100.00;46644.78;5011899;28;20144;-69
2022/09/16 02:52:41;;;;;;;5.83;0.60;;;;;;;-145.18;100.00;46679.94;5012293;28;20046;-69
2022/09/16 02:55:36;;;;;;;2.97;0.60;;;;;;;-145.18;100.00;46677.97;5012558;28;20029;-69
2022/09/16 02:58:03;;;;;;;2.47;0.50;;;;;;;-145.18;100.00;46646.72;5003002;28;20073;-69
2022/09/16 03:00:29;;;;;;;5.00;1.20;;;;;;;-145.18;100.00;46640.88;5013047;28;20038;-69
2022/09/16 03:02:55;;;;;;;6.03;0.80;;;;;;;-145.18;100.00;46677.97;5011961;28;20140;-69
2022/09/16 03:05:26;;;;;;;4.57;0.80;;;;;;;-145.18;100.00;46660.41;4995052;28;20125;-69
2022/09/16 03:07:52;;;;;;;6.23;0.80;;;;;;;-145.18;100.00;46638.91;5012126;28;20100;-69
2022/09/16 03:10:17;;;;;;;8.33;0.60;;;;;;;-145.18;100.00;46640.88;5012459;28;20046;-68
2022/09/16 03:13:10;;;;;;;4.13;0.60;;;;;;;-145.18;100.00;46636.94;5012200;28;20337;-68
2022/09/16 03:15:58;;;;;;;1.17;0.43;;;;;;;-145.18;100.00;46676.03;5012882;28;20433;-68
2022/09/16 03:18:23;;;;;;;1.53;0.60;;;;;;;-145.18;100.00;46676.03;5010935;28;20030;-68
2022/09/16 03:21:02;;;;;;;4.50;0.50;;;;;;;-145.18;100.00;46660.41;5012262;28;20570;-68
2022/09/16 03:24:06;;;;;;;4.37;0.60;;;;;;;-145.18;100.00;46660.41;5011978;28;20036;-68
2022/09/16 03:27:03;;;;;;;4.43;0.53;;;;;;;-145.18;100.00;46660.41;5012449;28;20034;-68
2022/09/16 03:29:31;;;;;;;;;;;;;;;-145.18;100.00;46660.41;5012468;28;20541;-68
2022/09/16 03:32:20;;;;;;;3.77;1.17;;;;;;;-145.18;100.00;46677.97;5012228;28;19913;-70
2022/09/16 03:34:58;;;;;;;5.40;0.83;;;;;;;-145.18;100.00;46660.41;5012258;28;20390;-68
2022/09/16 03:37:27;;;;;;;6.10;1.80;;;;;;;-145.18;100.00;46636.94;5011764;28;20104;-68
2022/09/16 03:39:58;;;;;;;3.03;0.80;;;;;;;-145.18;100.00;46660.41;5012315;28;20493;-68
2022/09/16 03:42:24;;;;;;;9.53;1.33;;;;;;;-145.18;100.00;46638.91;5011626;28;20022;-68
2022/09/16 03:44:49;;;;;;;8.20;1.03;;;;;;;-145.18;100.00;46660.41;5011780;28;20026;-68
2022/09/16 03:47:16;;;;;;;9.23;1.07;;;;;;;-145.18;100.00;46676.03;5010904;28;20108;-68
2022/09/16 03:49:41;;;;;;;4.63;0.70;;;;;;;-145.18;100.00;46660.41;5011356;28;20071;-68
2022/09/16 03:52:07;;;;;;;4.37;0.90;;;;;;;-145.18;100.00;46636.94;5011059;28;20444;-69
2022/09/16 03:54:33;;;;;;;4.07;0.80;;;;;;;-145.18;100.00;46638.91;5011224;28;20037;-69
2022/09/16 03:56:59;;;;;;;4.73;0.50;;;;;;;-145.18;100.00;46638.91;5011440;28;20046;-69
2022/09/16 03:59:26;;;;;;;5.23;0.60;;;;;;;-145.18;100.00;46640.88;5011304;28;20279;-68
2022/09/16 04:01:51;;;;;;;2.00;0.40;;;;;;;-145.18;100.00;46642.81;5011398;28;20108;-69
2022/09/16 04:04:16;;;;;;;2.07;0.43;;;;;;;-145.18;100.00;46642.81;4989796;28;20740;-69
2022/09/16 04:06:42;;;;;;;2.33;0.50;;;;;;;-145.18;100.00;46642.81;4972416;28;20031;-69
2022/09/16 04:09:11;;;;;;;2.17;0.50;;;;;;;-145.18;100.00;46644.78;4971647;28;20045;-68
2022/09/16 04:11:36;;;;;;;3.70;0.80;;;;;;;-145.18;100.00;46642.81;4972487;28;20065;-69
2022/09/16 04:14:03;;;;;;;6.70;0.83;;;;;;;-145.18;100.00;46640.88;4972116;28;20729;-69
2022/09/16 04:16:29;;;;;;;2.73;0.43;;;;;;;-145.18;100.00;46642.81;4972573;28;20085;-69
2022/09/16 04:18:55;;;;;;;3.77;0.70;;;;;;;-145.18;100.00;46644.78;4972335;28;20038;-69
2022/09/16 04:21:21;;;;;;;1.10;0.30;;;;;;;-145.18;100.00;46648.69;4972435;28;20292;-69
2022/09/16 04:23:47;;;;;;;3.53;0.40;;;;;;;-145.18;100.00;46650.63;4972007;28;20030;-69
2022/09/16 04:26:13;;;;;;;2.50;0.50;;;;;;;-145.18;100.00;46648.69;4972698;28;20391;-69
2022/09/16 04:28:38;;;;;;;5.40;0.60;;;;;;;-145.18;100.00;46650.63;4973170;28;20031;-69
2022/09/16 04:31:06;;;;;;;1.80;0.40;;;;;;;-145.18;100.00;46650.63;4976405;28;20121;-69
2022/09/16 04:33:34;;;;;;;3.70;0.50;;;;;;;-145.18;100.00;46648.69;4975868;28;20051;-69
2022/09/16 04:36:09;;;;;;;3.13;0.50;;;;;;;-145.18;100.00;46652.59;4975751;28;20279;-69
2022/09/16 04:38:35;;;;;;;1.15;0.45;;;;;;;-145.18;100.00;46644.78;4975843;28;20275;-69
2022/09/16 04:41:18;;;;;;;2.00;0.30;;;;;;;-145.18;100.00;46650.63;4975736;28;20046;-69
2022/09/16 04:43:44;;;;;;;3.57;0.33;;;;;;;-145.18;100.00;46650.63;4975533;28;20272;-69
2022/09/16 04:46:09;;;;;;;0.93;0.60;;;;;;;-145.18;100.00;46646.72;4975705;28;20284;-69
2022/09/16 04:48:35;;;;;;;1.53;0.40;;;;;;;-145.18;100.00;46648.69;4975317;28;20035;-68
2022/09/16 04:51:04;;;;;;;3.20;0.60;;;;;;;-145.18;100.00;46650.63;4975513;28;20507;-69
2022/09/16 04:53:29;;;;;;;4.07;0.87;;;;;;;-145.18;100.00;46646.72;4972248;28;20558;-69
2022/09/16 04:56:05;;;;;;;4.53;0.90;;;;;;;-145.18;100.00;46642.81;4969431;28;20328;-69
2022/09/16 04:58:30;;;;;;;;;;;;;;;-145.18;100.00;46646.72;4964005;28;20554;-68
2022/09/16 05:01:01;;;;;;;4.70;0.50;;;;;;;-145.18;100.00;46644.78;4966840;28;19929;-69
2022/09/16 05:03:27;;;;;;;2.00;0.50;;;;;;;-145.18;100.00;46648.69;4987782;28;20047;-69
2022/09/16 05:05:52;;;;;;;1.87;0.57;;;;;;;-145.18;100.00;46650.63;4994800;28;20108;-69
2022/09/16 05:08:17;;;;;;;4.47;0.50;;;;;;;-145.18;100.00;46644.78;4994000;28;20069;-69
2022/09/16 05:10:43;;;;;;;4.47;1.07;;;;;;;-145.18;100.00;46642.81;4977292;28;20058;-69
2022/09/16 05:13:08;;;;;;;2.80;0.93;;;;;;;-145.18;100.00;46646.72;4993379;28;20504;-69
2022/09/16 05:15:34;;;;;;;3.20;0.90;;;;;;;-145.18;100.00;46648.69;4975331;28;20085;-69
2022/09/16 05:17:59;;;;;;;1.87;0.50;;;;;;;-145.18;100.00;46648.69;4973659;28;20434;-69
2022/09/16 05:20:24;;;;;;;6.13;1.10;;;;;;;-145.18;100.00;46650.63;4957859;28;20030;-69
2022/09/16 05:22:50;;;;;;;2.13;0.60;;;;;;;-145.18;100.00;46646.72;4999781;28;20058;-69
2022/09/16 05:25:16;;;;;;;3.90;0.73;;;;;;;-145.18;100.00;46646.72;5011440;28;20065;-69
2022/09/16 05:27:41;;;;;;;3.60;0.57;;;;;;;-145.18;100.00;46644.78;5011607;28;20056;-69
2022/09/16 05:30:08;;;;;;;5.23;0.70;;;;;;;-145.18;100.00;46644.78;5013764;28;20042;-69
2022/09/16 05:32:33;;;;;;;6.80;1.20;;;;;;;-145.18;100.00;46648.69;5013127;28;20049;-70
2022/09/16 05:34:58;;;;;;;2.77;0.70;;;;;;;-145.18;100.00;46646.72;5014102;28;20038;-69
2022/09/16 05:37:24;;;;;;;9.57;1.20;;;;;;;-145.18;100.00;46644.78;5013884;28;20034;-69
2022/09/16 05:39:49;;;;;;;7.10;0.60;;;;;;;-145.18;100.00;46646.72;5013735;28;20042;-69
2022/09/16 05:42:15;;;;;;;4.63;1.20;;;;;;;-145.18;100.00;46640.88;5013243;28;20026;-69
2022/09/16 05:44:40;;;;;;;2.20;0.73;;;;;;;-145.18;100.00;46640.88;5013811;28;20375;-69
2022/09/16 05:47:05;;;;;;;2.53;0.70;;;;;;;-145.18;100.00;46644.78;4988244;28;20394;-69
2022/09/16 05:49:30;;;;;;;4.43;0.80;;;;;;;-145.18;100.00;46648.69;4967473;28;20093;-69
2022/09/16 05:51:56;;;;;;;5.57;0.90;;;;;;;-145.18;100.00;46640.88;4986254;28;20085;-69
2022/09/16 05:54:23;;;;;;;3.47;0.60;;;;;;;-145.18;100.00;46648.69;4983868;28;20046;-69
2022/09/16 05:56:50;;;;;;;7.60;0.80;;;;;;;-145.18;100.00;46640.88;4979377;28;20038;-69
2022/09/16 05:59:16;;;;;;;6.23;0.70;;;;;;;-145.18;100.00;46646.72;4973206;28;20026;-69
2022/09/16 06:01:42;;;;;;;2.67;0.73;;;;;;;-145.18;100.00;46642.81;4983927;28;20034;-69
2022/09/16 06:04:11;;;;;;;8.13;1.53;;;;;;;-145.18;100.00;46642.81;4992301;28;20054;-69
2022/09/16 06:06:38;;;;;;;5.90;0.83;;;;;;;-145.18;100.00;46644.78;4984574;28;20034;-69
2022/09/16 06:09:06;;;;;;;4.67;1.30;;;;;;;-145.18;100.00;46644.78;5004541;28;20034;-70
2022/09/16 06:11:41;;;;;;;5.13;1.00;;;;;;;-145.18;100.00;46644.78;5012074;28;20032;-70
2022/09/16 06:14:07;;;;;;;2.83;0.75;;;;;;;-145.18;100.00;46640.88;4998584;28;20088;-69
2022/09/16 06:16:33;;;;;;;8.20;0.97;;;;;;;-145.18;100.00;46644.78;5012104;28;20117;-69
2022/09/16 06:19:04;;;;;;;5.90;0.80;;;;;;;-145.18;100.00;46640.88;4994950;28;20546;-70
2022/09/16 06:21:30;;;;;;;2.60;0.63;;;;;;;-145.18;100.00;46640.88;4991215;28;20045;-69
2022/09/16 06:23:56;;;;;;;4.27;0.67;;;;;;;-145.18;100.00;46642.81;4992822;28;20030;-70
2022/09/16 06:26:24;;;;;;;7.53;1.27;;;;;;;-145.18;100.00;46640.88;4991689;28;20030;-70
2022/09/16 06:28:50;;;;;;;5.37;0.87;;;;;;;-145.18;100.00;46640.88;5005435;28;20057;-70
2022/09/16 06:31:18;;;;;;;6.10;0.90;;;;;;;-145.18;100.00;46640.88;4991573;28;20036;-70
2022/09/16 06:33:44;;;;;;;7.17;0.93;;;;;;;-145.18;100.00;46638.91;4995456;28;20068;-70
2022/09/16 06:36:17;;;;;;;3.37;0.63;;;;;;;-145.18;100.00;46642.81;4967543;28;20165;-70
2022/09/16 06:38:43;;;;;;;4.83;0.70;;;;;;;-145.18;100.00;46646.72;5012551;28;20029;-70
2022/09/16 06:41:10;;;;;;;6.13;0.93;;;;;;;-145.18;100.00;46638.91;5011712;28;20038;-70
2022/09/16 06:43:36;;;;;;;9.97;1.13;;;;;;;-145.18;100.00;46638.91;5012621;28;20062;-70
2022/09/16 06:46:15;;;;;;;8.10;1.00;;;;;;;-145.18;100.00;46638.91;5000822;28;20038;-70
2022/09/16 06:48:42;;;;;;;7.93;1.47;;;;;;;-145.18;100.00;46636.94;4991967;28;20037;-70
2022/09/16 06:51:13;;;;;;;5.33;1.30;;;;;;;-145.18;100.00;46640.88;4984887;28;20030;-71
2022/09/16 06:53:39;;;;;;;12.30;1.60;;;;;;;-145.18;100.00;46646.72;5000138;28;20046;-67
2022/09/16 06:56:11;;;;;;;7.23;1.20;;;;;;;-145.18;100.00;46642.81;4990285;28;20026;-69
2022/09/16 06:58:38;;;;;;;5.13;1.67;;;;;;;-145.18;100.00;46642.81;4984365;28;20046;-68
2022/09/16 07:01:12;;;;;;;9.50;1.67;;;;;;;-145.18;100.00;46642.81;5005392;28;20038;-69
2022/09/16 07:03:40;;;;;;;10.40;1.60;;;;;;;-145.18;100.00;46642.81;4985962;28;20046;-70
2022/09/16 07:06:07;;;;;;;6.50;1.13;;;;;;;-145.18;100.00;46644.78;4985476;28;20046;-70
2022/09/16 07:08:34;;;;;;;15.57;1.47;;;;;;;-145.18;100.00;46648.69;4988047;28;20038;-69
2022/09/16 07:11:06;;;;;;;7.90;1.40;;;;;;;-145.18;100.00;46646.72;4990942;28;20042;-69
2022/09/16 07:13:32;;;;;;;6.23;0.93;;;;;;;-145.18;100.00;46646.72;4992379;28;20068;-69
2022/09/16 07:16:02;;;;;;;5.03;0.80;;;;;;;-145.18;100.00;46646.72;4985438;28;20045;-69
2022/09/16 07:18:29;;;;;;;9.60;1.03;;;;;;;-145.18;100.00;46648.69;4982251;28;20033;-69
2022/09/16 07:21:11;;;;;;;7.00;0.93;;;;;;;-145.18;100.00;46644.78;4992546;28;20030;-69
2022/09/16 07:23:38;;;;;;;3.40;0.80;;;;;;;-145.18;100.00;46646.72;5005659;28;20108;-70
2022/09/16 07:26:06;;;;;;;3.73;0.80;;;;;;;-145.18;100.00;46644.78;5010971;28;20386;-70
2022/09/16 07:28:33;;;;;;;7.57;1.17;;;;;;;-145.18;100.00;46648.69;5010633;28;20108;-69
2022/09/16 07:31:03;;;;;;;8.13;1.27;;;;;;;-145.18;100.00;46646.72;5001666;28;20502;-70
2022/09/16 07:33:29;;;;;;;6.60;0.90;;;;;;;-145.18;100.00;46648.69;5004284;28;20065;-70
2022/09/16 07:35:59;;;;;;;8.37;1.07;;;;;;;-145.18;100.00;46646.72;5010673;28;20038;-70
2022/09/16 07:38:25;;;;;;;6.43;1.00;;;;;;;-145.18;100.00;46650.63;5010320;28;20028;-70
2022/09/16 07:40:50;;;;;;;5.53;0.87;;;;;;;-145.18;100.00;46654.53;4997855;28;20034;-70
2022/09/16 07:43:15;;;;;;;8.23;1.20;;;;;;;-145.18;100.00;46654.53;4988613;28;20782;-70
2022/09/16 07:45:41;;;;;;;8.23;0.90;;;;;;;-145.18;100.00;46658.44;4983217;28;20418;-70
2022/09/16 07:48:06;;;;;;;5.77;1.40;;;;;;;-145.18;100.00;46658.44;4989072;28;20030;-70
2022/09/16 07:50:31;;;;;;;4.00;0.90;;;;;;;-145.18;100.00;46658.44;4988637;28;20104;-70
2022/09/16 07:52:57;;;;;;;4.37;0.93;;;;;;;-145.18;100.00;46656.50;4984434;28;20026;-70
2022/09/16 07:55:22;;;;;;;11.00;1.50;;;;;;;-145.18;100.00;46664.31;4979889;28;20041;-70
2022/09/16 07:57:47;;;;;;;8.23;1.70;;;;;;;-145.18;100.00;46666.25;4977602;28;20030;-70
2022/09/16 08:00:15;;;;;;;8.10;1.40;;;;;;;-145.18;100.00;46666.25;4976630;28;20022;-70
2022/09/16 08:02:40;;;;;;;8.03;0.80;;;;;;;-145.18;100.00;46672.13;4984375;28;20141;-70
2022/09/16 08:05:06;;;;;;;6.60;0.70;;;;;;;-145.18;100.00;46668.22;5009457;28;20120;-70
2022/09/16 08:07:31;;;;;;;4.70;0.97;;;;;;;-145.18;100.00;46672.13;5010186;28;20042;-70
2022/09/16 08:09:56;;;;;;;8.10;1.00;;;;;;;-145.18;100.00;46676.03;5005990;28;20670;-70
2022/09/16 08:12:22;;;;;;;7.97;0.77;;;;;;;-145.18;100.00;46676.03;4979905;28;20043;-70
2022/09/16 08:14:47;;;;;;;7.10;1.70;;;;;;;-145.18;100.00;46676.03;4999654;28;20046;-70
2022/09/16 08:17:12;;;;;;;5.47;0.80;;;;;;;-145.18;100.00;46672.13;5003920;28;20070;-71
2022/09/16 08:19:39;;;;;;;6.37;0.87;;;;;;;-145.18;100.00;46674.06;4990430;28;20034;-70
2022/09/16 08:22:04;;;;;;;3.93;0.67;;;;;;;-145.18;100.00;46670.16;4990200;28;20074;-71
2022/09/16 08:24:30;;;;;;;10.30;1.03;;;;;;;-145.18;100.00;46672.13;4987831;28;20062;-71
2022/09/16 08:26:55;;;;;;;3.27;0.70;;;;;;;-145.18;100.00;46668.22;4990642;28;20089;-70
2022/09/16 08:29:23;;;;;;;8.47;1.53;;;;;;;-145.18;100.00;46672.13;4990646;28;20033;-71
2022/09/16 08:31:49;;;;;;;7.00;0.83;;;;;;;-145.18;100.00;46672.13;4990445;28;20030;-70
2022/09/16 08:34:15;;;;;;;8.00;1.10;;;;;;;-145.18;100.00;46672.13;4992061;28;20178;-71
2022/09/16 08:36:41;;;;;;;6.20;0.70;;;;;;;-145.18;100.00;46677.97;4991741;28;20538;-70
2022/09/16 08:39:06;;;;;;;9.10;0.90;;;;;;;-145.18;100.00;46679.94;4994338;28;20026;-71
2022/09/16 08:41:45;;;;;;;5.30;0.60;;;;;;;-145.18;100.00;46679.94;5010908;28;20073;-71
2022/09/16 08:44:21;;;;;;;13.03;1.00;;;;;;;-145.18;100.00;46674.06;4993761;28;20027;-70
2022/09/16 08:46:54;;;;;;;7.53;0.87;;;;;;;-145.18;100.00;46676.03;5004123;28;20021;-70
2022/09/16 08:49:27;;;;;;;4.87;1.03;;;;;;;-145.18;100.00;46676.03;5009754;28;20049;-70
2022/09/16 08:51:54;;;;;;;8.73;1.17;;;;;;;-145.18;100.00;46677.97;5002847;28;20038;-70
2022/09/16 08:54:41;;;;;;;4.80;1.00;;;;;;;-145.18;100.00;46679.94;4989920;28;20030;-70
2022/09/16 08:57:13;;;;;;;8.63;1.30;;;;;;;-145.18;100.00;46676.03;4999364;28;20422;-70
2022/09/16 08:59:45;;;;;;;5.97;1.10;;;;;;;-145.18;100.00;46679.94;5004435;28;20108;-70
2022/09/16 09:02:10;;;;;;;6.43;1.10;;;;;;;-145.18;100.00;46679.94;5009571;28;20133;-70
2022/09/16 09:04:35;;;;;;;8.67;2.40;;;;;;;-145.18;100.00;46676.03;5010210;28;20125;-69
2022/09/16 09:07:35;;;;;;;5.67;1.90;;;;;;;-145.18;100.00;46679.94;5009860;28;20375;-69
2022/09/16 09:10:18;;;;;;;5.07;1.80;;;;;;;-145.18;100.00;46677.97;4990284;28;20088;-69
2022/09/16 09:12:52;;;;;;;6.57;1.00;;;;;;;-145.18;100.00;46672.13;4990704;28;20117;-68
2022/09/16 09:15:17;;;;;;;11.50;1.87;;;;;;;-145.18;100.00;46674.06;4987492;28;20122;-68
2022/09/16 09:18:24;;;;;;;9.60;1.77;;;;;;;-145.18;100.00;46672.13;4994091;28;20109;-68
2022/09/16 09:21:12;;;;;;;9.70;1.00;;;;;;;-145.18;100.00;46674.06;4921906;29;20067;-68
2022/09/16 09:23:48;;;;;;;9.30;1.03;;;;;;;-145.18;100.00;46664.31;4913404;29;20047;-69
2022/09/16 09:26:21;;;;;;;7.17;0.83;;;;;;;-145.18;100.00;46664.31;4954119;28;20046;-69
2022/09/16 09:29:03;;;;;;;5.27;0.70;;;;;;;-145.18;100.00;46666.25;4973003;28;20022;-68
2022/09/16 09:32:02;;;;;;;4.33;1.03;;;;;;;-145.18;100.00;46664.31;4987909;28;20034;-69
2022/09/16 09:34:37;;;;;;;4.17;0.80;;;;;;;-145.18;100.00;46666.25;4993243;28;20438;-70
2022/09/16 09:37:34;;;;;;;5.43;0.97;;;;;;;-145.18;100.00;46668.22;4993976;28;20494;-70
2022/09/16 09:40:34;;;;;;;4.10;0.70;;;;;;;-145.18;100.00;46677.97;4973598;28;20077;-71
2022/09/16 09:43:22;;;;;;;5.00;0.77;;;;;;;-145.18;100.00;46676.03;4948069;28;20039;-71
2022/09/16 09:46:32;;;;;;;2.90;0.73;;;;;;;-145.18;100.00;46679.94;4993624;28;20030;-71
2022/09/16 09:49:09;;;;;;;2.93;0.70;;;;;;;-145.18;100.00;46676.03;4993310;28;20038;-71
2022/09/16 09:51:47;;;;;;;2.27;0.60;;;;;;;-145.18;100.00;46674.06;4993571;28;20033;-71
2022/09/16 09:54:24;;;;;;;3.30;0.67;;;;;;;-145.18;100.00;46660.41;4992513;28;20034;-72
2022/09/16 09:57:02;;;;;;;5.93;0.73;;;;;;;-145.18;100.00;46654.53;4993698;28;20444;-71
2022/09/16 09:59:57;;;;;;;7.77;1.27;;;;;;;-145.18;100.00;46658.44;4992830;28;20038;-71
2022/09/16 10:02:23;;;;;;;7.60;1.33;;;;;;;-145.18;100.00;46670.16;4993008;28;20081;-71
2022/09/16 10:04:49;;;;;;;6.97;0.83;;;;;;;-145.18;100.00;46672.13;4993035;28;20070;-72
2022/09/16 10:07:17;;;;;;;5.53;0.97;;;;;;;-145.18;100.00;46676.03;4992866;28;20113;-71
2022/09/16 10:10:18;;;;;;;6.53;0.80;;;;;;;-145.18;100.00;46676.03;4992778;28;20055;-71
2022/09/16 10:12:43;;;;;;;3.77;0.80;;;;;;;-145.18;100.00;46621.31;4987873;28;20054;-72
2022/09/16 10:15:29;;;;;;;7.07;1.10;;;;;;;-145.18;100.00;46658.44;4991654;28;20046;-72
2022/09/16 10:17:58;;;;;;;3.90;0.80;;;;;;;-145.18;100.00;46676.03;4993466;28;20034;-71
2022/09/16 10:20:31;;;;;;;9.27;1.17;;;;;;;-145.18;100.00;46674.06;4975090;28;20030;-70
2022/09/16 10:23:05;;;;;;;9.77;1.20;;;;;;;-145.18;100.00;46683.84;4993441;28;20034;-70
2022/09/16 10:25:32;;;;;;;6.80;0.93;;;;;;;-145.18;100.00;46679.94;4992751;28;20056;-70
2022/09/16 10:28:00;;;;;;;5.97;0.70;;;;;;;-145.18;100.00;46679.94;4992820;28;20033;-71
2022/09/16 10:30:28;;;;;;;7.47;0.83;;;;;;;-145.18;100.00;46679.94;4992135;28;20026;-71
2022/09/16 10:32:58;;;;;;;4.50;0.53;;;;;;;-145.18;100.00;46672.13;4992541;28;20026;-70
2022/09/16 10:35:30;;;;;;;6.77;1.13;;;;;;;-145.18;100.00;46672.13;4991452;28;20049;-70
2022/09/16 10:37:58;;;;;;;10.80;0.80;;;;;;;-145.18;100.00;46676.03;4992394;28;20054;-71
2022/09/16 10:40:25;;;;;;;9.47;0.90;;;;;;;-145.18;100.00;46670.16;4991004;28;20491;-71
2022/09/16 10:42:55;;;;;;;7.13;1.00;;;;;;;-145.18;100.00;46674.06;4993059;28;20034;-71
2022/09/16 10:45:34;;;;;;;3.77;0.70;;;;;;;-145.18;100.00;46677.97;5004916;28;20486;-71
2022/09/16 10:48:05;;;;;;;7.63;1.10;;;;;;;-145.18;100.00;46676.03;4996624;28;20026;-72
2022/09/16 10:50:31;;;;;;;6.00;0.80;;;;;;;-145.18;100.00;46676.03;5011539;28;20125;-72
2022/09/16 10:52:56;;;;;;;5.77;0.73;;;;;;;-145.18;100.00;46677.97;5011837;28;20029;-72
2022/09/16 10:55:26;;;;;;;5.23;0.77;;;;;;;-145.18;100.00;46677.97;5011350;28;20061;-72
2022/09/16 10:57:54;;;;;;;5.07;0.60;;;;;;;-145.18;100.00;46672.13;5011712;28;20029;-72
2022/09/16 11:00:30;;;;;;;6.57;0.70;;;;;;;-145.18;100.00;46664.31;5011153;28;20490;-72
2022/09/16 11:03:26;;;;;;;7.00;0.90;;;;;;;-145.18;100.00;46677.97;5011476;28;20050;-72
2022/09/16 11:06:06;;;;;;;6.05;0.70;;;;;;;-145.18;100.00;46679.94;5010949;28;20506;-72
2022/09/16 11:08:39;;;;;;;4.33;0.63;;;;;;;-145.18;100.00;46677.97;5010853;28;20108;-72
2022/09/16 11:11:32;;;;;;;3.90;0.60;;;;;;;-145.18;100.00;46679.94;5011540;28;20041;-72
2022/09/16 11:14:05;;;;;;;1.23;0.40;;;;;;;-145.18;100.00;46677.97;4996128;28;20088;-72
2022/09/16 11:16:46;;;;;;;2.23;0.67;;;;;;;-145.18;100.00;46679.94;4979885;28;20045;-71
2022/09/16 11:19:16;;;;;;;5.50;0.90;;;;;;;-145.18;100.00;46677.97;4983866;28;20026;-72
2022/09/16 11:21:54;;;;;;;6.33;1.20;;;;;;;-145.18;100.00;46668.22;4982763;28;20113;-71
2022/09/16 11:24:38;;;;;;;2.93;0.60;;;;;;;-145.18;100.00;46670.16;4988031;28;20038;-71
2022/09/16 11:27:18;;;;;;;6.53;0.70;;;;;;;-145.18;100.00;46652.59;4987973;28;20030;-71
2022/09/16 11:30:10;;;;;;;2.10;0.50;;;;;;;-145.18;100.00;46562.72;4988657;28;20039;-72
2022/09/16 11:32:57;;;;;;;3.13;0.83;;;;;;;-145.18;100.00;46562.72;4987205;28;20109;-71
2022/09/16 11:35:31;;;;;;;3.57;0.60;;;;;;;-145.18;100.00;46551.00;4989998;28;20519;-72